Time;durP1;ratioP1;P1;durP2;ratioP2;P2;SDS_P1;SDS_P2;PMS_P1;PMS_P2;Temp;Humidity;BMP_temperature;BMP_pressure;BME280_temperature;BME280_humidity;BME280_pressure;Samples;Min_cycle;Max_cycle;Signal;HPM_P1;HPM_P2
2021/08/12 00:02:01;;;;;;;6.80;5.53;;;18.90;71.30;;;;;;5135263;27;20012;-80
2021/08/12 00:04:26;;;;;;;6.10;5.45;;;18.90;71.40;;;;;;5116928;27;20018;-81
2021/08/12 00:06:52;;;;;;;5.88;5.28;;;18.80;71.40;;;;;;5116813;27;20026;-80
2021/08/12 00:09:18;;;;;;;7.40;6.65;;;18.80;71.50;;;;;;5116588;27;20055;-81
2021/08/12 00:11:43;;;;;;;8.52;5.53;;;18.80;71.60;;;;;;5116747;27;20019;-80
2021/08/12 00:14:09;;;;;;;5.38;4.50;;;18.80;71.60;;;;;;5116776;27;20024;-80
2021/08/12 00:16:34;;;;;;;4.63;4.15;;;18.80;71.70;;;;;;5116491;27;20084;-81
2021/08/12 00:22:24;;;;;;;4.32;3.80;;;18.70;71.90;;;;;;5111200;28;20037;-81
2021/08/12 00:24:49;;;;;;;5.05;4.20;;;18.70;71.90;;;;;;5092717;28;20052;-80
2021/08/12 00:27:15;;;;;;;5.68;4.20;;;18.60;72.00;;;;;;5092638;28;20070;-80
2021/08/12 00:29:40;;;;;;;5.90;4.30;;;18.50;72.20;;;;;;5092615;28;20391;-81
2021/08/12 00:32:06;;;;;;;4.90;4.10;;;18.50;72.40;;;;;;5092491;28;20040;-81
2021/08/12 00:34:32;;;;;;;5.20;4.10;;;18.50;72.40;;;;;;5093879;28;20090;-80
2021/08/12 00:36:58;;;;;;;6.40;4.00;;;18.50;72.60;;;;;;5092939;28;20506;-80
2021/08/12 00:39:23;;;;;;;4.63;4.10;;;18.50;72.60;;;;;;5092411;28;20089;-80
2021/08/12 00:41:50;;;;;;;4.78;4.13;;;18.50;72.60;;;;;;5092300;28;20028;-80
2021/08/12 00:44:16;;;;;;;5.80;4.15;;;18.50;72.80;;;;;;5092630;28;20020;-80
2021/08/12 00:46:42;;;;;;;4.70;3.92;;;18.40;72.80;;;;;;5093752;28;20043;-80
2021/08/12 00:49:07;;;;;;;6.22;4.10;;;18.40;72.90;;;;;;5092300;28;20043;-80
2021/08/12 00:51:38;;;;;;;4.72;3.88;;;18.40;72.90;;;;;;5093530;28;20426;-80
2021/08/12 00:54:03;;;;;;;5.13;4.25;;;18.40;73.10;;;;;;5092567;28;20035;-80
2021/08/12 00:56:29;;;;;;;4.55;3.97;;;18.40;73.10;;;;;;5091936;28;20028;-80
2021/08/12 00:58:55;;;;;;;5.70;4.13;;;18.30;73.10;;;;;;5092143;28;20027;-80
2021/08/12 01:01:21;;;;;;;5.80;4.15;;;18.30;73.30;;;;;;5093453;28;20032;-80
2021/08/12 01:03:46;;;;;;;4.28;3.75;;;18.20;73.40;;;;;;5093451;28;20031;-81
2021/08/12 01:06:15;;;;;;;5.22;4.72;;;18.20;73.60;;;;;;5091970;28;20063;-81
2021/08/12 01:09:17;;;;;;;6.35;4.03;;;18.10;73.70;;;;;;5093141;28;20032;-81
2021/08/12 01:11:52;;;;;;;5.32;4.30;;;18.10;73.90;;;;;;5088338;28;20120;-80
2021/08/12 01:14:40;;;;;;;5.22;4.40;;;18.10;74.50;;;;;;5091603;28;20038;-80
2021/08/12 01:17:11;;;;;;;6.80;4.72;;;18.10;74.00;;;;;;5092819;28;20036;-80
2021/08/12 01:19:55;;;;;;;5.78;4.35;;;18.10;73.90;;;;;;5091570;28;20031;-80
2021/08/12 01:22:23;;;;;;;5.20;4.40;;;18.10;74.10;;;;;;5092976;28;20067;-80
2021/08/12 01:24:53;;;;;;;5.30;4.45;;;18.00;74.00;;;;;;5115368;28;20038;-80
2021/08/12 01:27:22;;;;;;;4.63;3.92;;;18.10;74.10;;;;;;5115226;27;20114;-80
2021/08/12 01:30:08;;;;;;;5.78;4.35;;;18.10;74.10;;;;;;5115388;28;20026;-81
2021/08/12 01:32:56;;;;;;;5.35;4.03;;;18.10;74.10;;;;;;5133696;28;20506;-80
2021/08/12 01:35:23;;;;;;;6.00;4.45;;;18.00;74.10;;;;;;5115125;28;20023;-80
2021/08/12 01:37:55;;;;;;;4.38;3.97;;;18.00;74.10;;;;;;5115182;28;20491;-80
2021/08/12 01:40:23;;;;;;;5.60;4.65;;;18.00;74.30;;;;;;5133665;28;20019;-80
2021/08/12 01:42:51;;;;;;;5.88;4.75;;;18.00;74.30;;;;;;5115093;28;20027;-80
2021/08/12 01:45:17;;;;;;;5.95;4.97;;;18.00;74.40;;;;;;5115071;28;20019;-81
2021/08/12 01:47:44;;;;;;;6.00;4.80;;;18.00;74.40;;;;;;5115153;27;20065;-81
2021/08/12 01:50:14;;;;;;;7.28;5.05;;;17.90;75.10;;;;;;5119375;27;20117;-80
2021/08/12 01:52:41;;;;;;;6.88;4.68;;;18.00;74.60;;;;;;5119351;27;20118;-80
2021/08/12 01:55:09;;;;;;;6.32;4.95;;;17.90;74.60;;;;;;5137861;27;20477;-80
2021/08/12 01:57:36;;;;;;;5.60;4.78;;;17.90;74.70;;;;;;5119345;27;20043;-80
2021/08/12 02:00:04;;;;;;;6.00;4.60;;;17.90;74.80;;;;;;5119439;27;20076;-80
2021/08/12 02:02:30;;;;;;;5.35;4.25;;;17.90;74.70;;;;;;5137942;27;20102;-80
2021/08/12 02:04:56;;;;;;;5.40;4.07;;;17.90;74.70;;;;;;5119119;27;20082;-80
2021/08/12 02:07:22;;;;;;;5.40;4.78;;;17.90;74.80;;;;;;5119108;27;20035;-80
2021/08/12 02:09:48;;;;;;;6.40;5.07;;;17.90;74.80;;;;;;5119069;27;20114;-80
2021/08/12 02:12:13;;;;;;;4.60;4.10;;;17.90;74.80;;;;;;5137443;27;20042;-80
2021/08/12 02:14:39;;;;;;;6.55;4.50;;;17.90;74.90;;;;;;5137357;27;20023;-80
2021/08/12 02:17:05;;;;;;;4.88;4.22;;;17.80;74.90;;;;;;5118782;27;20038;-80
2021/08/12 02:19:32;;;;;;;7.20;4.40;;;17.80;74.90;;;;;;5118907;27;20024;-79
2021/08/12 02:22:04;;;;;;;6.25;4.60;;;17.80;75.00;;;;;;5137547;27;20027;-80
2021/08/12 02:25:07;;;;;;;7.97;5.07;;;17.80;75.10;;;;;;5137084;27;20039;-80
2021/08/12 02:27:39;;;;;;;5.75;4.68;;;17.80;75.10;;;;;;5067199;27;20458;-80
2021/08/12 02:30:05;;;;;;;6.70;5.57;;;17.80;75.10;;;;;;5118775;27;20394;-80
2021/08/12 02:32:32;;;;;;;5.78;5.00;;;17.80;75.10;;;;;;5137139;27;20521;-80
2021/08/12 02:34:59;;;;;;;5.32;4.55;;;17.80;75.10;;;;;;5118612;27;20016;-80
2021/08/12 02:37:26;;;;;;;5.90;4.65;;;17.80;75.10;;;;;;5118434;27;20443;-80
2021/08/12 02:39:53;;;;;;;5.32;4.43;;;17.80;75.20;;;;;;5137077;27;20493;-80
2021/08/12 02:42:20;;;;;;;6.47;4.57;;;17.90;75.30;;;;;;5136836;27;20099;-80
2021/08/12 02:44:47;;;;;;;6.75;5.28;;;17.80;75.30;;;;;;5118350;27;20058;-80
2021/08/12 02:47:15;;;;;;;5.57;4.53;;;17.80;75.30;;;;;;5118450;27;20034;-80
2021/08/12 02:49:46;;;;;;;7.25;4.72;;;17.70;75.30;;;;;;5118271;27;20027;-80
2021/08/12 02:52:14;;;;;;;5.78;4.93;;;17.70;75.50;;;;;;5118225;27;20458;-81
2021/08/12 02:54:42;;;;;;;6.07;5.22;;;17.70;75.50;;;;;;5118225;27;20490;-80
2021/08/12 02:57:08;;;;;;;7.07;5.07;;;17.60;75.60;;;;;;5118492;27;20027;-80
2021/08/12 02:59:35;;;;;;;6.53;5.00;;;17.60;75.70;;;;;;5117611;28;20027;-80
2021/08/12 03:02:02;;;;;;;6.35;5.05;;;17.60;75.90;;;;;;5118009;27;20030;-80
2021/08/12 03:04:28;;;;;;;5.95;5.22;;;17.50;75.90;;;;;;5118253;27;20115;-80
2021/08/12 03:06:57;;;;;;;6.70;4.88;;;17.50;76.00;;;;;;5136387;27;20139;-81
2021/08/12 03:09:25;;;;;;;6.13;5.05;;;17.50;76.20;;;;;;5117833;27;20027;-80
2021/08/12 03:11:55;;;;;;;6.07;4.82;;;17.50;76.30;;;;;;5136464;27;20038;-80
2021/08/12 03:14:21;;;;;;;6.18;5.20;;;17.40;76.30;;;;;;5117948;27;20027;-80
2021/08/12 03:16:47;;;;;;;6.15;4.57;;;17.50;76.40;;;;;;5136239;27;20076;-80
2021/08/12 03:19:16;;;;;;;6.22;5.13;;;17.40;76.40;;;;;;5136095;27;20027;-78
2021/08/12 03:22:04;;;;;;;6.68;5.50;;;17.40;76.50;;;;;;5136336;27;20070;-80
2021/08/12 03:24:35;;;;;;;6.97;5.88;;;17.40;76.70;;;;;;5117362;27;20043;-80
2021/08/12 03:27:01;;;;;;;6.25;5.18;;;17.40;76.60;;;;;;5136113;27;20058;-80
2021/08/12 03:32:54;;;;;;;8.45;5.68;;;17.30;76.80;;;;;;5136172;27;20026;-81
2021/08/12 03:35:20;;;;;;;7.45;5.32;;;17.30;76.80;;;;;;5117465;27;20031;-81
2021/08/12 03:37:46;;;;;;;6.15;5.45;;;17.30;76.80;;;;;;5117445;27;20022;-80
2021/08/12 03:40:12;;;;;;;7.32;5.95;;;17.30;76.80;;;;;;5117424;27;20027;-81
2021/08/12 03:42:39;;;;;;;7.13;5.20;;;17.30;76.80;;;;;;5117407;27;20027;-81
2021/08/12 03:45:05;;;;;;;7.35;5.93;;;17.30;76.90;;;;;;5117396;27;20485;-81
2021/08/12 03:47:32;;;;;;;7.07;5.55;;;17.30;77.00;;;;;;5117280;27;20481;-80
2021/08/12 03:49:57;;;;;;;8.30;6.22;;;17.20;76.90;;;;;;5117077;27;20027;-80
2021/08/12 03:52:23;;;;;;;8.35;5.93;;;17.20;77.00;;;;;;5117181;27;20046;-81
2021/08/12 03:54:49;;;;;;;8.15;6.20;;;17.20;77.00;;;;;;5117199;27;20027;-80
2021/08/12 03:57:14;;;;;;;8.98;6.18;;;17.20;77.00;;;;;;5116997;27;20035;-80
2021/08/12 03:59:40;;;;;;;7.53;6.00;;;17.20;77.00;;;;;;5117175;27;20493;-80
2021/08/12 04:02:06;;;;;;;7.85;6.20;;;17.10;77.10;;;;;;5135651;27;20494;-80
2021/08/12 04:04:31;;;;;;;6.95;5.90;;;17.10;77.20;;;;;;5135414;27;20386;-80
2021/08/12 04:06:57;;;;;;;6.78;5.85;;;17.10;77.30;;;;;;5135602;27;20095;-80
2021/08/12 04:09:23;;;;;;;7.97;6.38;;;17.00;77.20;;;;;;5116947;27;20015;-82
2021/08/12 04:11:48;;;;;;;7.90;5.97;;;17.00;77.20;;;;;;5116931;27;20065;-80
2021/08/12 04:14:14;;;;;;;7.40;6.22;;;17.00;77.30;;;;;;5135287;27;20024;-80
2021/08/12 04:16:40;;;;;;;7.38;5.95;;;17.10;77.30;;;;;;5116589;27;20100;-80
2021/08/12 04:19:06;;;;;;;9.82;6.32;;;17.10;77.30;;;;;;5135152;27;20034;-80
2021/08/12 04:21:32;;;;;;;9.07;6.45;;;17.10;77.30;;;;;;5134891;27;20047;-81
2021/08/12 04:23:57;;;;;;;8.10;6.43;;;17.10;77.30;;;;;;5112767;28;20065;-80
2021/08/12 04:26:29;;;;;;;8.60;5.40;;;17.00;77.20;;;;;;5112986;28;20031;-81
2021/08/12 04:28:55;;;;;;;7.28;5.47;;;17.00;77.20;;;;;;5112947;28;20023;-81
2021/08/12 04:31:21;;;;;;;7.22;6.03;;;17.00;77.20;;;;;;5114286;28;20088;-81
2021/08/12 04:33:46;;;;;;;6.25;5.65;;;17.00;77.20;;;;;;5112990;28;20027;-81
2021/08/12 04:36:12;;;;;;;7.57;5.90;;;17.00;77.30;;;;;;5113992;28;20035;-80
2021/08/12 04:38:38;;;;;;;7.38;5.78;;;17.00;77.30;;;;;;5112826;28;20026;-81
2021/08/12 04:41:03;;;;;;;7.78;6.40;;;17.00;77.20;;;;;;5113995;28;20019;-80
2021/08/12 04:43:30;;;;;;;9.00;6.63;;;17.00;77.30;;;;;;5112624;28;20020;-80
2021/08/12 04:45:56;;;;;;;6.93;6.13;;;17.00;77.20;;;;;;5113939;28;20026;-80
2021/08/12 04:48:21;;;;;;;7.78;6.70;;;17.00;77.20;;;;;;5112558;28;20376;-80
2021/08/12 04:50:48;;;;;;;8.38;6.20;;;17.00;77.20;;;;;;5112512;28;20032;-81
2021/08/12 04:53:14;;;;;;;7.10;6.05;;;17.00;77.30;;;;;;5112470;28;20207;-81
2021/08/12 04:55:40;;;;;;;7.35;6.50;;;17.10;77.30;;;;;;5112496;28;20027;-81
2021/08/12 04:58:06;;;;;;;8.27;6.85;;;17.10;77.30;;;;;;5112944;28;20035;-81
2021/08/12 05:00:33;;;;;;;8.10;6.10;;;17.10;77.30;;;;;;5112432;28;20054;-82
2021/08/12 05:02:58;;;;;;;8.27;6.00;;;17.10;77.30;;;;;;5112241;28;20441;-81
2021/08/12 05:05:24;;;;;;;7.65;6.35;;;17.20;77.20;;;;;;5112295;28;20127;-81
2021/08/12 05:07:50;;;;;;;8.10;6.88;;;17.20;77.20;;;;;;5109385;28;20032;-82
2021/08/12 05:10:15;;;;;;;7.85;6.20;;;17.20;77.20;;;;;;5113835;28;20039;-81
2021/08/12 05:12:41;;;;;;;7.97;6.78;;;17.20;77.20;;;;;;5112305;28;20030;-81
2021/08/12 05:15:07;;;;;;;8.18;6.53;;;17.20;77.20;;;;;;5113401;28;20077;-81
2021/08/12 05:17:33;;;;;;;8.55;6.95;;;17.20;77.20;;;;;;5111599;28;20035;-81
2021/08/12 05:19:59;;;;;;;7.65;6.43;;;17.20;77.20;;;;;;5112043;28;20024;-81
2021/08/12 05:22:25;;;;;;;8.88;6.90;;;17.20;77.20;;;;;;5111811;28;20491;-80
2021/08/12 05:24:51;;;;;;;10.05;7.22;;;17.20;77.30;;;;;;5115252;27;20075;-81
2021/08/12 05:27:17;;;;;;;7.07;6.22;;;17.20;77.30;;;;;;5133768;27;20031;-80
2021/08/12 05:29:43;;;;;;;8.38;7.18;;;17.20;77.20;;;;;;5115487;28;20118;-81
2021/08/12 05:32:09;;;;;;;9.95;6.75;;;17.30;77.30;;;;;;5115446;28;20031;-81
2021/08/12 05:34:34;;;;;;;9.77;7.38;;;17.30;77.20;;;;;;5133653;28;20111;-81
2021/08/12 05:37:00;;;;;;;9.30;7.10;;;17.30;77.20;;;;;;5112073;28;20035;-79
2021/08/12 05:39:27;;;;;;;8.95;7.25;;;17.30;77.30;;;;;;5115011;28;20470;-81
2021/08/12 05:41:52;;;;;;;8.38;6.70;;;17.30;77.30;;;;;;5114986;28;20342;-80
2021/08/12 05:44:18;;;;;;;8.75;7.00;;;17.40;77.40;;;;;;5133302;27;20031;-81
2021/08/12 05:46:44;;;;;;;9.77;7.15;;;17.40;77.40;;;;;;5114955;28;20694;-81
2021/08/12 05:49:10;;;;;;;10.30;7.40;;;17.50;77.30;;;;;;5133858;28;20055;-81
2021/08/12 05:51:37;;;;;;;9.60;7.10;;;17.50;77.30;;;;;;5115209;28;20040;-81
2021/08/12 05:54:03;;;;;;;10.15;7.68;;;17.60;77.30;;;;;;5133576;28;20498;-80
2021/08/12 05:56:29;;;;;;;7.80;6.57;;;17.60;77.20;;;;;;5115101;28;20034;-79
2021/08/12 05:58:54;;;;;;;9.35;7.72;;;17.70;77.20;;;;;;5133345;28;20114;-81
2021/08/12 06:01:20;;;;;;;7.10;6.32;;;17.80;77.20;;;;;;5115099;28;20052;-80
2021/08/12 06:03:46;;;;;;;8.80;7.00;;;17.80;77.10;;;;;;5115506;28;20023;-80
2021/08/12 06:06:11;;;;;;;9.07;6.82;;;17.80;77.00;;;;;;5115080;28;20467;-81
2021/08/12 06:08:37;;;;;;;7.90;6.40;;;17.90;77.00;;;;;;5115070;28;20027;-81
2021/08/12 06:11:02;;;;;;;8.27;6.57;;;17.90;76.90;;;;;;5115109;28;20126;-81
2021/08/12 06:13:28;;;;;;;8.15;6.32;;;18.00;76.80;;;;;;5133334;28;20049;-82
2021/08/12 06:15:54;;;;;;;8.68;6.68;;;18.00;76.70;;;;;;5133477;28;20042;-81
2021/08/12 06:18:20;;;;;;;8.07;6.22;;;18.10;76.60;;;;;;5114909;28;20027;-82
2021/08/12 06:20:46;;;;;;;8.43;6.68;;;18.20;76.50;;;;;;5114926;28;20057;-81
2021/08/12 06:23:11;;;;;;;6.80;6.10;;;18.30;76.40;;;;;;5133228;28;20071;-81
2021/08/12 06:25:38;;;;;;;8.43;6.78;;;18.30;77.00;;;;;;5133591;28;20076;-81
2021/08/12 06:28:05;;;;;;;8.50;6.78;;;18.40;76.20;;;;;;5133206;28;20035;-80
2021/08/12 06:30:31;;;;;;;7.93;6.43;;;18.50;76.10;;;;;;5114628;28;20106;-81
2021/08/12 06:32:56;;;;;;;7.03;5.63;;;18.50;75.90;;;;;;5133089;28;20035;-80
2021/08/12 06:35:22;;;;;;;7.95;6.57;;;18.60;75.80;;;;;;5115897;27;20027;-81
2021/08/12 06:37:51;;;;;;;8.38;5.70;;;18.60;75.60;;;;;;5118477;27;20038;-82
2021/08/12 06:40:19;;;;;;;6.93;6.10;;;18.70;75.40;;;;;;5136856;27;20107;-81
2021/08/12 06:42:45;;;;;;;7.53;6.65;;;18.70;75.20;;;;;;5118632;27;20047;-81
2021/08/12 06:45:12;;;;;;;7.88;6.50;;;18.80;75.10;;;;;;5118274;27;20019;-80
2021/08/12 06:47:38;;;;;;;6.10;5.45;;;18.80;75.00;;;;;;5118256;27;20053;-81
2021/08/12 06:50:04;;;;;;;6.43;5.70;;;18.80;74.90;;;;;;5136559;27;20522;-80
2021/08/12 06:52:31;;;;;;;8.27;6.35;;;18.90;74.90;;;;;;5118467;27;20024;-81
2021/08/12 06:54:56;;;;;;;8.88;6.82;;;18.90;74.80;;;;;;5118011;27;20027;-80
2021/08/12 06:57:22;;;;;;;6.55;5.70;;;18.90;74.60;;;;;;5136841;27;20040;-81
2021/08/12 07:03:10;;;;;;;6.97;5.70;;;19.00;74.50;;;;;;5136575;27;20064;-80
2021/08/12 07:05:35;;;;;;;7.22;6.00;;;19.00;74.50;;;;;;5117801;27;20027;-80
2021/08/12 07:08:02;;;;;;;8.43;5.78;;;19.10;74.40;;;;;;5117881;27;20108;-80
2021/08/12 07:10:28;;;;;;;7.25;5.47;;;19.10;74.30;;;;;;5136005;27;20019;-80
2021/08/12 07:12:53;;;;;;;6.65;5.50;;;19.20;74.30;;;;;;5117477;27;20026;-80
2021/08/12 07:15:19;;;;;;;6.57;5.25;;;19.20;74.20;;;;;;5117482;27;20383;-80
2021/08/12 07:17:44;;;;;;;7.00;5.32;;;19.30;74.10;;;;;;5117329;27;20027;-80
2021/08/12 07:20:10;;;;;;;7.68;5.85;;;19.40;74.00;;;;;;5117525;27;20058;-80
2021/08/12 07:22:36;;;;;;;6.88;5.40;;;19.40;73.90;;;;;;5117181;27;20027;-78
2021/08/12 07:25:02;;;;;;;6.35;5.03;;;19.50;73.70;;;;;;5135671;27;20071;-76
2021/08/12 07:27:27;;;;;;;8.43;5.10;;;19.50;73.40;;;;;;5135774;27;20099;-76
2021/08/12 07:29:53;;;;;;;6.55;5.45;;;19.60;73.30;;;;;;5135715;27;20038;-76
2021/08/12 07:32:19;;;;;;;6.45;4.80;;;19.70;73.20;;;;;;5117665;27;20029;-75
2021/08/12 07:34:44;;;;;;;6.88;4.90;;;19.80;73.00;;;;;;5135577;27;20050;-76
2021/08/12 07:37:10;;;;;;;6.32;4.72;;;19.90;72.90;;;;;;5135523;27;20042;-75
2021/08/12 07:39:35;;;;;;;5.55;4.93;;;19.90;72.70;;;;;;5135727;27;20038;-75
2021/08/12 07:42:01;;;;;;;6.35;4.63;;;19.90;72.40;;;;;;5135494;27;20055;-74
2021/08/12 07:44:26;;;;;;;7.05;5.30;;;20.00;72.30;;;;;;5135234;27;20023;-75
2021/08/12 07:46:52;;;;;;;7.38;4.63;;;20.10;72.10;;;;;;5116626;27;20027;-75
2021/08/12 07:49:17;;;;;;;5.30;4.25;;;20.10;71.80;;;;;;5135327;27;20030;-75
2021/08/12 07:51:43;;;;;;;5.50;4.25;;;20.20;71.60;;;;;;5135407;27;20023;-79
2021/08/12 07:54:09;;;;;;;5.40;4.45;;;20.30;71.30;;;;;;5117155;27;20059;-79
2021/08/12 07:56:34;;;;;;;4.63;4.03;;;20.30;71.00;;;;;;5116626;27;20030;-78
2021/08/12 07:59:00;;;;;;;6.32;4.13;;;20.40;70.80;;;;;;5135405;27;20071;-81
2021/08/12 08:01:25;;;;;;;4.35;3.92;;;20.40;70.50;;;;;;5116873;27;20482;-76
2021/08/12 08:03:51;;;;;;;6.13;4.43;;;20.50;70.40;;;;;;5116541;27;20023;-77
2021/08/12 08:06:17;;;;;;;4.50;3.83;;;20.50;70.20;;;;;;5116469;27;20030;-76
2021/08/12 08:08:42;;;;;;;6.13;4.45;;;20.50;70.10;;;;;;5116524;27;20391;-78
2021/08/12 08:11:09;;;;;;;6.82;4.60;;;20.60;70.00;;;;;;5116472;27;20038;-78
2021/08/12 08:13:34;;;;;;;5.93;4.18;;;20.60;70.00;;;;;;5116888;27;20034;-78
2021/08/12 08:16:00;;;;;;;4.72;3.90;;;20.70;69.90;;;;;;5116079;27;20487;-78
2021/08/12 08:18:26;;;;;;;5.13;4.00;;;20.70;69.70;;;;;;5115835;27;20110;-78
2021/08/12 08:20:52;;;;;;;5.15;4.05;;;20.80;69.50;;;;;;5116246;27;20024;-78
2021/08/12 08:23:18;;;;;;;5.97;4.28;;;20.80;69.40;;;;;;5134202;27;20035;-79
2021/08/12 08:25:43;;;;;;;5.63;4.20;;;20.80;69.20;;;;;;5115696;27;20043;-78
2021/08/12 08:28:09;;;;;;;5.88;4.68;;;20.90;69.20;;;;;;5116464;27;20019;-79
2021/08/12 08:30:36;;;;;;;5.38;4.47;;;20.90;69.10;;;;;;5134426;27;20505;-78
2021/08/12 08:33:03;;;;;;;6.97;4.13;;;20.90;69.00;;;;;;5116214;27;20019;-79
2021/08/12 08:35:29;;;;;;;4.10;3.65;;;21.00;69.00;;;;;;5116191;27;20062;-79
2021/08/12 08:37:59;;;;;;;4.60;4.10;;;21.00;68.80;;;;;;5115890;27;20087;-78
2021/08/12 08:40:25;;;;;;;5.18;4.07;;;21.10;68.60;;;;;;5134093;27;20490;-79
2021/08/12 08:42:51;;;;;;;5.35;4.10;;;21.20;68.50;;;;;;5115836;27;20368;-79
2021/08/12 08:45:38;;;;;;;4.65;4.03;;;21.20;68.40;;;;;;5116108;27;20031;-77
2021/08/12 08:48:07;;;;;;;5.13;4.00;;;21.30;68.10;;;;;;5115809;27;20510;-81
2021/08/12 08:50:35;;;;;;;5.15;4.03;;;21.30;68.00;;;;;;5115650;27;20101;-78
2021/08/12 08:53:01;;;;;;;4.93;4.20;;;21.40;68.00;;;;;;5115640;27;20019;-79
2021/08/12 08:55:28;;;;;;;4.55;4.03;;;21.40;67.90;;;;;;5115417;27;20049;-80
2021/08/12 08:57:55;;;;;;;6.72;4.20;;;21.50;67.70;;;;;;5114811;27;20031;-80
2021/08/12 09:00:22;;;;;;;5.10;3.92;;;21.50;67.50;;;;;;5134069;27;20027;-80
2021/08/12 09:02:49;;;;;;;4.63;3.90;;;21.60;67.40;;;;;;5115495;27;20355;-80
2021/08/12 09:05:15;;;;;;;5.28;3.90;;;21.70;67.30;;;;;;5115613;27;20035;-80
2021/08/12 09:07:41;;;;;;;5.60;4.03;;;21.70;67.10;;;;;;5134032;27;20114;-80
2021/08/12 09:10:08;;;;;;;5.18;3.90;;;21.80;66.90;;;;;;5115171;27;20428;-78
2021/08/12 09:12:36;;;;;;;6.72;4.28;;;21.80;66.80;;;;;;5115708;27;20049;-79
2021/08/12 09:15:07;;;;;;;5.22;3.92;;;21.90;66.50;;;;;;5115518;27;20420;-80
2021/08/12 09:21:28;;;;;;;5.88;4.10;;;22.00;66.10;;;;;;5133685;27;20088;-79
2021/08/12 09:23:57;;;;;;;4.80;3.33;;;22.10;66.00;;;;;;5070549;27;20140;-79
2021/08/12 09:26:24;;;;;;;4.22;3.75;;;22.10;65.90;;;;;;5133856;27;20079;-79
2021/08/12 09:28:49;;;;;;;4.55;3.38;;;22.10;65.70;;;;;;5115407;28;20427;-79
2021/08/12 09:31:15;;;;;;;3.95;3.58;;;22.20;65.50;;;;;;5133259;27;20027;-80
2021/08/12 09:33:43;;;;;;;4.70;3.58;;;22.20;65.10;;;;;;5114966;28;20109;-80
2021/08/12 09:36:24;;;;;;;4.45;3.30;;;22.30;64.90;;;;;;5115215;28;20031;-79
2021/08/12 09:39:12;;;;;;;5.10;3.28;;;22.30;64.60;;;;;;5114829;28;20027;-80
2021/08/12 09:41:47;;;;;;;3.97;3.08;;;22.30;64.50;;;;;;5133188;28;20027;-79
2021/08/12 09:44:38;;;;;;;3.85;2.75;;;22.40;64.30;;;;;;5114673;28;20072;-79
2021/08/12 09:47:08;;;;;;;4.10;3.05;;;22.40;64.20;;;;;;5115071;28;20429;-80
2021/08/12 09:49:54;;;;;;;4.30;3.13;;;22.50;64.00;;;;;;5114880;28;20023;-80
2021/08/12 09:52:28;;;;;;;4.07;3.30;;;22.50;63.50;;;;;;5114815;28;20050;-79
2021/08/12 09:55:21;;;;;;;5.35;3.00;;;22.60;63.40;;;;;;5115182;28;20106;-79
2021/08/12 09:57:49;;;;;;;4.07;3.03;;;22.70;63.30;;;;;;5111687;28;20031;-78
2021/08/12 10:00:29;;;;;;;3.58;3.20;;;22.70;63.30;;;;;;5114711;28;20027;-81
2021/08/12 10:02:55;;;;;;;5.88;2.90;;;22.80;63.10;;;;;;5115172;28;20029;-82
2021/08/12 10:05:21;;;;;;;3.78;3.00;;;22.80;63.00;;;;;;5133356;28;20023;-81
2021/08/12 10:11:21;;;;;;;4.05;2.78;;;22.90;62.80;;;;;;5137310;27;20551;-80
2021/08/12 10:13:48;;;;;;;3.25;2.80;;;22.90;62.30;;;;;;5136908;27;20027;-80
2021/08/12 10:16:16;;;;;;;3.60;2.65;;;22.90;62.20;;;;;;5118334;27;20031;-80
2021/08/12 10:18:44;;;;;;;4.30;3.13;;;23.00;62.30;;;;;;5136890;27;20085;-81
2021/08/12 10:21:12;;;;;;;4.00;2.75;;;23.10;62.00;;;;;;5136687;27;20023;-77
2021/08/12 10:23:38;;;;;;;3.63;2.80;;;23.20;61.80;;;;;;5136731;27;20440;-77
2021/08/12 10:26:05;;;;;;;3.22;2.70;;;23.20;61.80;;;;;;5136725;27;20031;-79
2021/08/12 10:28:34;;;;;;;3.45;2.90;;;23.20;61.50;;;;;;5136636;27;20055;-78
2021/08/12 10:31:04;;;;;;;3.00;2.72;;;23.20;61.20;;;;;;5136804;27;20034;-78
2021/08/12 10:33:31;;;;;;;3.72;3.10;;;23.30;61.10;;;;;;5118048;27;20122;-78
2021/08/12 10:36:00;;;;;;;3.55;2.75;;;23.30;61.00;;;;;;5118062;27;20080;-78
2021/08/12 10:38:26;;;;;;;4.30;2.88;;;23.40;61.10;;;;;;5121391;27;20038;-78
2021/08/12 10:40:53;;;;;;;4.82;3.10;;;23.40;60.90;;;;;;5118474;27;20015;-77
2021/08/12 10:43:22;;;;;;;3.38;2.92;;;23.50;60.80;;;;;;5120206;27;20390;-78
2021/08/12 10:46:00;;;;;;;3.63;3.10;;;23.60;60.80;;;;;;5118546;27;20053;-77
2021/08/12 10:48:28;;;;;;;5.55;3.15;;;23.50;61.20;;;;;;5136735;27;20109;-78
2021/08/12 10:51:12;;;;;;;3.65;3.25;;;23.60;60.70;;;;;;5118202;27;20019;-78
2021/08/12 10:53:43;;;;;;;4.03;3.45;;;23.60;60.50;;;;;;5117966;27;20023;-78
2021/08/12 10:56:17;;;;;;;3.47;3.17;;;23.70;60.40;;;;;;5117690;27;20031;-77
2021/08/12 10:58:47;;;;;;;5.20;3.80;;;23.70;60.40;;;;;;5117753;27;20046;-77
2021/08/12 11:01:29;;;;;;;4.20;3.40;;;23.80;60.10;;;;;;5117435;27;20031;-77
2021/08/12 11:03:58;;;;;;;3.90;3.15;;;23.80;60.00;;;;;;5101239;27;20490;-78
2021/08/12 11:06:35;;;;;;;5.07;3.00;;;23.90;60.10;;;;;;5117774;27;20027;-77
2021/08/12 11:09:02;;;;;;;3.78;2.95;;;24.00;60.10;;;;;;5117670;27;20057;-77
2021/08/12 11:11:28;;;;;;;4.00;2.90;;;24.10;60.00;;;;;;5136177;27;20062;-77
2021/08/12 11:14:14;;;;;;;5.22;3.25;;;24.10;59.70;;;;;;5117684;27;20054;-77
2021/08/12 11:16:42;;;;;;;6.40;2.90;;;24.10;59.60;;;;;;5117523;27;20027;-77
2021/08/12 11:19:23;;;;;;;4.65;2.90;;;24.20;59.50;;;;;;5117365;27;20031;-78
2021/08/12 11:21:50;;;;;;;3.88;3.05;;;24.30;59.40;;;;;;5116539;27;20028;-78
2021/08/12 11:24:25;;;;;;;5.05;3.15;;;24.30;59.30;;;;;;5117137;27;20490;-76
2021/08/12 11:26:51;;;;;;;4.13;2.95;;;24.40;59.10;;;;;;5117308;27;20046;-76
2021/08/12 11:29:23;;;;;;;3.97;3.15;;;24.50;59.10;;;;;;5117805;27;20426;-78
2021/08/12 11:31:48;;;;;;;3.13;2.83;;;24.60;59.00;;;;;;5117170;27;20122;-78
2021/08/12 11:34:24;;;;;;;3.35;3.05;;;24.70;59.00;;;;;;5117237;27;20478;-80
2021/08/12 11:37:08;;;;;;;4.55;2.90;;;24.70;58.90;;;;;;5117037;27;20046;-78
2021/08/12 11:39:46;;;;;;;5.93;3.30;;;24.80;58.90;;;;;;5135784;27;20049;-80
2021/08/12 11:42:44;;;;;;;2.92;2.50;;;24.90;58.80;;;;;;5117113;27;20027;-80
2021/08/12 11:45:18;;;;;;;4.95;2.70;;;24.90;58.70;;;;;;5097724;27;20035;-79
2021/08/12 11:47:53;;;;;;;3.25;2.75;;;24.90;58.60;;;;;;5135428;27;20030;-80
2021/08/12 11:50:18;;;;;;;3.45;2.67;;;24.90;58.60;;;;;;5117012;27;20088;-79
2021/08/12 11:52:50;;;;;;;3.78;2.40;;;25.00;58.40;;;;;;5116783;27;20027;-79
2021/08/12 11:55:20;;;;;;;3.30;2.70;;;25.10;58.20;;;;;;5116930;27;20490;-78
2021/08/12 11:57:47;;;;;;;3.80;3.20;;;25.20;57.90;;;;;;5116911;27;20027;-81
2021/08/12 12:00:15;;;;;;;3.10;2.70;;;25.30;57.60;;;;;;5135281;27;20034;-80
2021/08/12 12:03:04;;;;;;;3.92;2.80;;;25.40;57.60;;;;;;5135242;27;20031;-79
2021/08/12 12:05:37;;;;;;;3.33;2.97;;;25.50;57.40;;;;;;5135332;27;20027;-80
2021/08/12 12:08:10;;;;;;;5.05;2.80;;;25.50;57.30;;;;;;5116770;27;20031;-80
2021/08/12 12:10:40;;;;;;;3.58;3.08;;;25.60;57.30;;;;;;5116580;27;20394;-80
2021/08/12 12:13:13;;;;;;;2.92;2.58;;;25.70;57.00;;;;;;5116798;27;20045;-80
2021/08/12 12:15:46;;;;;;;3.30;3.00;;;25.80;56.90;;;;;;5135285;27;20039;-80
2021/08/12 12:18:15;;;;;;;3.20;2.78;;;25.90;56.80;;;;;;5134829;27;20027;-80
2021/08/12 12:20:44;;;;;;;3.20;2.90;;;26.00;56.80;;;;;;5134832;27;20446;-80
2021/08/12 12:23:12;;;;;;;3.85;3.17;;;26.10;56.70;;;;;;5134680;27;20035;-80
2021/08/12 12:25:40;;;;;;;3.85;2.88;;;26.10;56.50;;;;;;5116304;27;20023;-80
2021/08/12 12:28:06;;;;;;;3.53;2.72;;;26.20;56.40;;;;;;5116308;27;20027;-80
2021/08/12 12:30:34;;;;;;;4.78;3.17;;;26.30;56.30;;;;;;5116295;27;20023;-82
2021/08/12 12:33:05;;;;;;;4.88;3.30;;;26.40;56.10;;;;;;5116136;27;20092;-84
2021/08/12 12:35:45;;;;;;;4.20;3.22;;;26.40;55.90;;;;;;5117211;27;20024;-83
2021/08/12 12:38:19;;;;;;;4.35;3.33;;;26.40;56.00;;;;;;5117114;27;20070;-84
2021/08/12 12:40:45;;;;;;;5.60;3.58;;;26.40;55.50;;;;;;5118171;27;20026;-87
2021/08/12 12:43:11;;;;;;;3.60;3.13;;;26.40;55.40;;;;;;5117354;27;20023;-85
2021/08/12 12:45:46;;;;;;;5.93;3.40;;;26.30;55.40;;;;;;5117970;27;20015;-86
2021/08/12 12:48:12;;;;;;;5.22;3.58;;;26.20;55.30;;;;;;5117250;27;20065;-85
2021/08/12 12:50:49;;;;;;;5.10;3.30;;;26.20;55.50;;;;;;5117400;27;20015;-84
2021/08/12 12:53:35;;;;;;;3.40;3.10;;;26.10;55.50;;;;;;5117636;27;20037;-82
2021/08/12 12:56:06;;;;;;;3.90;3.30;;;26.20;55.70;;;;;;5117962;27;20031;-83
2021/08/12 12:58:34;;;;;;;3.50;3.20;;;26.20;55.30;;;;;;5117201;27;20550;-86
2021/08/12 13:01:03;;;;;;;4.70;3.33;;;26.20;55.40;;;;;;5135595;27;20019;-83
2021/08/12 13:03:33;;;;;;;3.70;3.15;;;26.30;55.30;;;;;;5116636;27;20027;-84
2021/08/12 13:09:38;;;;;;;3.78;3.38;;;26.30;55.10;;;;;;5135228;27;20045;-83
2021/08/12 13:12:29;;;;;;;4.65;3.08;;;26.30;55.20;;;;;;5116091;27;20383;-83
2021/08/12 13:15:16;;;;;;;3.33;2.83;;;26.30;55.40;;;;;;5116569;27;20023;-83